Terminal Aerodrome Forecast
Issued by NWS Boise, ID

Home | Current Version | Previous Version | Text Only | Print | Product List | Glossary On
Versions: 1 2 3 4 5 6 7 8 9 10 11 12 13 14 15 16 17 18 19 20 21 22 23 24
000
FTUS45 KBOI 041120
TAFBOI
TAF
KBOI 041120Z 0412/0512 30006KT P6SM BKN100
     FM042300 31009KT P6SM VCSH SCT070 BKN100
     FM050300 32008KT P6SM SCT070 BKN100=

USA.gov is the U.S. government's official web portal to all federal, state and local government web resources and services.